La Tontouta International Airport
NWWW : now visible

Airfield :











YOU CAN JOIN US ON...

 
LOGIN :

Register | Disclaimer

   EN    FR    IT 

 









Legend :    VFR   Marginal VFR   IFR   Intensive IFR   Very Intensive IFR
Visi :
Ceiling :
>= 8 km
>= 3000ft
5 to 8 km
1000 to 3000 ft
1500m to 5 km
500 to 1000 ft
800 to 1500m
200 to 500 ft
< 800m
< 200 ft
Symbols :   Thunderstorms  Fog  Heavy snow  Heavy precipitations  Wind > 20 kt






- Airport Elevation : 52 ft
- IATA code : NOU


NWWW - La Tontouta International

CURRENT METAR :
  • 052330Z AUTO VRB02KT 9999 OVC050 21/11 Q1018 NOSIG

EXPIRED METARs :
  • 052300Z AUTO VRB03KT 9999 BKN052 22/12 Q1019 NOSIG
  • 052230Z AUTO VRB03KT 9999 OVC052 21/12 Q1019 NOSIG
  • 052200Z AUTO VRB03KT 9999 BKN052 20/12 Q1019 NOSIG
  • 052130Z AUTO VRB02KT 9999 BKN052 19/15 Q1018 NOSIG
  • 052100Z AUTO VRB02KT CAVOK 18/15 Q1018 NOSIG

TAF TAF NWWW
Valid from the 06 at 00:00 until the 07 at 00:00 UTC


052300Z 0600/0624 19008KT 9999 SCT045
BECMG 0608/0610 VRB02KT
PROB40
TEMPO 0614/0619 4000 BR
BECMG 0622/0624 16008KT
NFFF FIR / Oceania



MET'MAP, your aeronautical weather chart ! - Copyright ORBIFLY December 2007 - Disclaimer

ORBIFLY MET'MAP TEAM :

Programming & Development : Alexandra Zaïnal
Concept & original design : Baudouin d'Aumeries
Assistance for programming : Marc-Olivier Méhu
Technical & hardware support : Manuel Goepfert

Contact : metmap@orbifly.com




SOURCES & CREDITS :

   NOAA       Earth
Advisory